Terminal Aerodrome Forecast
Issued by NWS

Home | Current Version | Previous Version | Text Only | Print | Product List | Glossary On
Versions: 1 2 3 4 5 6 7 8 9 10 11 12
000
FTUS41 KBTV 260520
TAFSLK
TAF
KSLK 260520Z 2606/2706 23010KT P6SM VCSH OVC050
      TEMPO 2607/2611 4SM -SHRA BR OVC018
     FM261400 25011G20KT P6SM SCT040
     FM270000 24004KT P6SM FEW045=

USA.gov is the U.S. government's official web portal to all federal, state and local government web resources and services.